Time;durP1;ratioP1;P1;durP2;ratioP2;P2;SDS_P1;SDS_P2;PMS_P1;PMS_P2;Temp;Humidity;BMP_temperature;BMP_pressure;BME280_temperature;BME280_humidity;BME280_pressure;Samples;Min_cycle;Max_cycle;Signal;HPM_P1;HPM_P2
2022/10/08 00:01:42;;;;;;;5.95;5.55;;;11.70;99.90;;;;;;4171265;28;20479;-56
2022/10/08 00:04:03;;;;;;;5.97;5.70;;;11.50;99.90;;;;;;4171415;28;20060;-56
2022/10/08 00:06:28;;;;;;;5.45;4.97;;;11.50;99.90;;;;;;4171866;28;20056;-56
2022/10/08 00:08:55;;;;;;;6.18;6.00;;;11.30;99.90;;;;;;4171548;28;20130;-55
2022/10/08 00:11:20;;;;;;;6.05;5.70;;;11.30;99.90;;;;;;4171455;28;20064;-55
2022/10/08 00:13:41;;;;;;;86.50;10.40;;;11.20;99.90;;;;;;4171478;28;20053;-55
2022/10/08 00:16:02;;;;;;;16.42;8.07;;;11.20;99.90;;;;;;4171163;28;20095;-55
2022/10/08 00:18:23;;;;;;;12.43;8.75;;;11.20;99.90;;;;;;4171029;28;20455;-56
2022/10/08 00:20:44;;;;;;;8.98;8.55;;;11.20;99.90;;;;;;4171122;28;20139;-55
2022/10/08 00:23:06;;;;;;;7.75;7.45;;;11.30;99.90;;;;;;4171260;28;20606;-56
2022/10/08 00:25:27;;;;;;;8.10;7.60;;;11.40;99.90;;;;;;4170615;28;20396;-55
2022/10/08 00:27:47;;;;;;;15.65;8.77;;;11.50;99.90;;;;;;4170212;28;20051;-55
2022/10/08 00:30:08;;;;;;;52.30;8.75;;;11.40;99.90;;;;;;4171216;28;20518;-55
2022/10/08 00:32:29;;;;;;;8.45;8.02;;;11.30;99.90;;;;;;4170875;28;20176;-55
2022/10/08 00:34:50;;;;;;;7.90;7.60;;;11.20;99.90;;;;;;4170818;28;20108;-56
2022/10/08 00:37:10;;;;;;;7.90;7.60;;;11.20;99.90;;;;;;4170653;28;20080;-55
2022/10/08 00:39:30;;;;;;;7.90;7.10;;;11.30;99.90;;;;;;4170865;28;20056;-56
2022/10/08 00:41:53;;;;;;;7.38;6.97;;;11.40;99.90;;;;;;4170992;28;20103;-55
2022/10/08 00:44:44;;;;;;;6.90;6.50;;;11.50;99.90;;;;;;4170656;28;20510;-56
2022/10/08 00:47:19;;;;;;;7.60;7.15;;;11.40;99.90;;;;;;4171631;28;20056;-56
2022/10/08 00:49:39;;;;;;;9.63;7.53;;;11.40;99.90;;;;;;4170922;28;20060;-56
2022/10/08 00:52:00;;;;;;;6.38;5.93;;;11.40;99.90;;;;;;4170431;28;20060;-55
2022/10/08 00:54:21;;;;;;;6.88;6.57;;;11.40;99.90;;;;;;4170710;28;20052;-55
2022/10/08 00:56:43;;;;;;;6.53;5.90;;;11.50;99.90;;;;;;4170278;28;20048;-55
2022/10/08 00:59:04;;;;;;;7.15;6.70;;;11.50;99.90;;;;;;4168853;28;20052;-55
2022/10/08 01:01:25;;;;;;;6.90;6.47;;;11.50;99.90;;;;;;4170127;28;20438;-55
2022/10/08 01:03:46;;;;;;;7.30;7.00;;;11.60;99.90;;;;;;4170161;28;20055;-56
2022/10/08 01:06:29;;;;;;;6.93;6.57;;;11.50;99.90;;;;;;4170333;28;20127;-56
2022/10/08 01:08:56;;;;;;;7.78;7.35;;;11.40;99.90;;;;;;4169280;28;20130;-55
2022/10/08 01:11:37;;;;;;;7.25;6.95;;;11.40;99.90;;;;;;4170373;28;20060;-55
2022/10/08 01:14:39;;;;;;;7.38;7.18;;;11.20;99.90;;;;;;4170406;28;20095;-56
2022/10/08 01:17:11;;;;;;;7.05;6.65;;;11.30;99.90;;;;;;4169848;28;20044;-55
2022/10/08 01:19:59;;;;;;;7.43;6.95;;;11.20;99.90;;;;;;4170107;28;20055;-54
2022/10/08 01:22:34;;;;;;;7.75;7.35;;;11.20;99.90;;;;;;4170116;28;20132;-55
2022/10/08 01:25:32;;;;;;;6.72;6.20;;;11.20;99.90;;;;;;4170627;28;20115;-55
2022/10/08 01:28:03;;;;;;;6.57;6.35;;;11.20;99.90;;;;;;4169526;28;20159;-55
2022/10/08 01:30:23;;;;;;;6.70;6.22;;;11.30;99.90;;;;;;4169285;28;20096;-55
2022/10/08 01:32:59;;;;;;;7.47;7.03;;;11.30;99.90;;;;;;4169941;28;20170;-55
2022/10/08 01:35:26;;;;;;;6.45;6.25;;;11.20;99.90;;;;;;4169570;28;20428;-55
2022/10/08 01:37:48;;;;;;;6.82;6.63;;;11.30;99.90;;;;;;4169744;28;20134;-54
2022/10/08 01:40:16;;;;;;;7.20;6.67;;;11.20;99.90;;;;;;4170077;28;20092;-55
2022/10/08 01:42:38;;;;;;;6.22;5.80;;;11.20;99.90;;;;;;4169767;28;20283;-55
2022/10/08 01:45:13;;;;;;;6.43;6.22;;;11.20;99.90;;;;;;4169858;28;20118;-55
2022/10/08 01:47:38;;;;;;;6.65;6.45;;;11.00;99.90;;;;;;4168762;28;20110;-55
2022/10/08 01:50:11;;;;;;;7.18;6.65;;;10.90;99.90;;;;;;4170143;28;20060;-54
2022/10/08 01:52:39;;;;;;;6.63;6.32;;;10.90;99.90;;;;;;4169830;28;20750;-54
2022/10/08 01:55:06;;;;;;;11.52;9.07;;;10.80;99.90;;;;;;4169735;28;20151;-55
2022/10/08 01:57:29;;;;;;;9.40;8.80;;;10.80;99.90;;;;;;4169979;28;20552;-55
2022/10/08 02:00:12;;;;;;;6.70;6.50;;;10.70;99.90;;;;;;4169912;28;20053;-54
2022/10/08 02:02:33;;;;;;;6.72;6.53;;;10.80;99.90;;;;;;4169551;28;20269;-54
2022/10/08 02:04:55;;;;;;;7.43;7.03;;;10.90;99.90;;;;;;4169345;28;20100;-55
2022/10/08 02:07:20;;;;;;;7.25;7.05;;;11.00;99.90;;;;;;4168214;28;20092;-54
2022/10/08 02:09:43;;;;;;;9.25;7.53;;;10.90;99.90;;;;;;4169847;28;20052;-54
2022/10/08 02:12:05;;;;;;;14.05;7.35;;;10.80;99.90;;;;;;4169597;28;20068;-56
2022/10/08 02:14:27;;;;;;;8.68;8.10;;;10.60;99.90;;;;;;4168841;28;20166;-55
2022/10/08 02:16:57;;;;;;;7.93;7.57;;;10.60;99.90;;;;;;4169233;28;20052;-58
2022/10/08 02:19:28;;;;;;;7.82;7.45;;;10.50;99.90;;;;;;4169187;28;20047;-58
2022/10/08 02:21:51;;;;;;;7.05;6.55;;;10.40;99.90;;;;;;4169347;28;20083;-58
2022/10/08 02:24:25;;;;;;;9.98;8.10;;;10.30;99.90;;;;;;4167643;28;20140;-57
2022/10/08 02:26:53;;;;;;;8.18;7.57;;;10.30;99.90;;;;;;4168967;28;20102;-58
2022/10/08 02:29:32;;;;;;;8.25;7.78;;;10.30;99.90;;;;;;4169171;28;20653;-58
2022/10/08 02:32:10;;;;;;;8.05;7.65;;;10.20;99.90;;;;;;4168766;28;20550;-57
2022/10/08 02:34:36;;;;;;;7.47;7.07;;;10.20;99.90;;;;;;4169283;28;20132;-58
2022/10/08 02:37:23;;;;;;;22.05;7.60;;;10.30;99.90;;;;;;4168991;28;20052;-58
2022/10/08 02:39:49;;;;;;;6.82;6.18;;;10.30;99.90;;;;;;4169120;28;20129;-58
2022/10/08 02:42:14;;;;;;;13.63;6.45;;;10.30;99.90;;;;;;4169203;28;20056;-58
2022/10/08 02:44:40;;;;;;;25.67;5.95;;;10.20;99.90;;;;;;4168891;28;20092;-57
2022/10/08 02:47:04;;;;;;;22.50;6.40;;;10.20;99.90;;;;;;4168748;28;20127;-57
2022/10/08 02:49:30;;;;;;;27.92;6.85;;;10.10;99.90;;;;;;4168990;28;20143;-58
2022/10/08 02:51:53;;;;;;;13.68;5.57;;;10.00;99.90;;;;;;4168591;28;20099;-58
2022/10/08 02:54:17;;;;;;;15.32;6.65;;;10.00;99.90;;;;;;4169057;28;20052;-57
2022/10/08 02:56:54;;;;;;;6.43;6.32;;;10.00;99.90;;;;;;4169499;28;20060;-58
2022/10/08 02:59:17;;;;;;;49.00;7.38;;;10.20;99.90;;;;;;4169021;28;20523;-57
2022/10/08 03:01:57;;;;;;;51.63;7.78;;;10.00;99.90;;;;;;4169380;28;20052;-58
2022/10/08 03:04:37;;;;;;;23.20;7.90;;;10.00;99.90;;;;;;4168624;28;20136;-57
2022/10/08 03:06:59;;;;;;;6.72;6.18;;;9.90;99.90;;;;;;4167918;28;20047;-58
2022/10/08 03:09:21;;;;;;;6.53;6.43;;;9.90;99.90;;;;;;4168916;28;20060;-57
2022/10/08 03:11:43;;;;;;;16.58;7.18;;;10.00;99.90;;;;;;4169612;28;20110;-58
2022/10/08 03:14:08;;;;;;;6.38;6.18;;;10.20;99.90;;;;;;4169062;28;20083;-57
2022/10/08 03:16:39;;;;;;;6.95;6.60;;;10.20;99.90;;;;;;4168344;28;20056;-58
2022/10/08 03:19:03;;;;;;;7.05;6.68;;;10.20;99.90;;;;;;4168874;28;20075;-58
2022/10/08 03:21:26;;;;;;;56.85;7.57;;;10.30;99.90;;;;;;4167601;28;20056;-57
2022/10/08 03:23:47;;;;;;;8.23;6.65;;;10.20;99.90;;;;;;4168420;28;20048;-57
2022/10/08 03:26:08;;;;;;;6.50;5.90;;;10.20;99.90;;;;;;4169105;28;20056;-57
2022/10/08 03:28:28;;;;;;;11.25;6.00;;;10.20;99.90;;;;;;4168741;28;20463;-56
2022/10/08 03:30:49;;;;;;;8.50;5.53;;;10.20;99.90;;;;;;4168864;28;20055;-57
2022/10/08 03:33:10;;;;;;;12.65;5.80;;;10.20;99.90;;;;;;4172210;28;20091;-58
2022/10/08 03:35:31;;;;;;;36.97;5.00;;;10.30;99.90;;;;;;4171576;28;20052;-58
2022/10/08 03:37:52;;;;;;;25.63;4.57;;;10.20;99.90;;;;;;4171709;28;20412;-58
2022/10/08 03:40:13;;;;;;;40.72;5.18;;;10.10;99.90;;;;;;4171551;28;20154;-58
2022/10/08 03:42:33;;;;;;;27.63;5.20;;;10.10;99.90;;;;;;4171499;28;20140;-58
2022/10/08 03:44:55;;;;;;;48.53;6.25;;;10.00;99.90;;;;;;4170913;28;20138;-58
2022/10/08 03:47:15;;;;;;;4.50;4.40;;;9.90;99.90;;;;;;4170983;28;20156;-57
2022/10/08 03:49:36;;;;;;;6.85;4.75;;;10.00;99.90;;;;;;4171226;28;20408;-58
2022/10/08 03:51:56;;;;;;;5.72;5.53;;;10.00;99.90;;;;;;4171001;28;20517;-57
2022/10/08 03:54:17;;;;;;;4.72;4.63;;;10.00;99.90;;;;;;4171599;28;20056;-57
2022/10/08 03:56:37;;;;;;;5.55;5.22;;;10.10;99.90;;;;;;4171703;28;20044;-58
2022/10/08 03:58:59;;;;;;;5.10;4.80;;;10.10;99.90;;;;;;4171204;28;20052;-57
2022/10/08 04:01:20;;;;;;;23.55;6.13;;;10.10;99.90;;;;;;4171361;28;20200;-58
2022/10/08 04:03:41;;;;;;;42.83;7.25;;;10.00;99.90;;;;;;4171434;28;20067;-57
2022/10/08 04:06:02;;;;;;;7.25;6.28;;;10.00;99.90;;;;;;4171294;28;20094;-58
2022/10/08 04:08:23;;;;;;;22.17;7.68;;;9.90;99.90;;;;;;4170550;28;20080;-57
2022/10/08 04:10:43;;;;;;;7.03;6.70;;;9.80;99.90;;;;;;4171437;28;20111;-57
2022/10/08 04:13:04;;;;;;;7.18;6.60;;;9.90;99.90;;;;;;4170945;28;20516;-57
2022/10/08 04:15:24;;;;;;;21.42;7.45;;;10.00;99.90;;;;;;4171652;28;20052;-57
2022/10/08 04:17:45;;;;;;;72.10;9.48;;;10.00;99.90;;;;;;4171110;28;20129;-58
2022/10/08 04:20:06;;;;;;;14.98;7.15;;;10.00;99.90;;;;;;4170993;28;20519;-58
2022/10/08 04:22:26;;;;;;;12.43;6.53;;;9.90;99.90;;;;;;4171192;28;20056;-57
2022/10/08 04:24:47;;;;;;;62.35;7.35;;;9.90;99.90;;;;;;4171122;28;20063;-57
2022/10/08 04:27:07;;;;;;;69.18;8.88;;;9.80;99.90;;;;;;4170853;28;20102;-58
2022/10/08 04:29:28;;;;;;;18.02;7.18;;;9.70;99.90;;;;;;4171292;28;20060;-58
2022/10/08 04:31:48;;;;;;;72.35;9.90;;;9.70;99.90;;;;;;4170792;28;20056;-57
2022/10/08 04:34:10;;;;;;;8.07;7.00;;;9.60;99.90;;;;;;4170559;28;20047;-57
2022/10/08 04:36:31;;;;;;;33.92;7.78;;;9.60;99.90;;;;;;4171133;28;20550;-58
2022/10/08 04:38:52;;;;;;;14.27;7.07;;;9.70;99.90;;;;;;4170485;28;20055;-58
2022/10/08 04:41:15;;;;;;;22.17;6.93;;;9.70;99.90;;;;;;4170523;28;20061;-57
2022/10/08 04:43:37;;;;;;;6.45;6.25;;;9.70;99.90;;;;;;4169908;28;20640;-57
2022/10/08 04:45:58;;;;;;;7.50;6.65;;;9.70;99.90;;;;;;4170838;28;20163;-58
2022/10/08 04:48:18;;;;;;;11.38;7.25;;;9.80;99.90;;;;;;4170702;28;20067;-57
2022/10/08 04:50:39;;;;;;;6.15;5.88;;;9.90;99.90;;;;;;4170632;28;20128;-57
2022/10/08 04:52:59;;;;;;;21.75;7.43;;;9.80;99.90;;;;;;4171075;28;20052;-57
2022/10/08 04:55:23;;;;;;;6.80;6.60;;;9.80;99.90;;;;;;4168646;28;20052;-58
2022/10/08 04:57:44;;;;;;;20.58;6.40;;;9.90;99.90;;;;;;4170821;28;20052;-58
2022/10/08 05:00:05;;;;;;;6.55;6.45;;;9.70;99.90;;;;;;4170443;28;20539;-58
2022/10/08 05:02:38;;;;;;;21.55;6.38;;;9.80;99.90;;;;;;4170075;28;20048;-57
2022/10/08 05:04:58;;;;;;;20.95;6.47;;;9.70;99.90;;;;;;4169998;28;20080;-58
2022/10/08 05:07:19;;;;;;;6.35;6.25;;;9.70;99.90;;;;;;4169766;28;20206;-57
2022/10/08 05:09:39;;;;;;;6.50;6.40;;;9.60;99.90;;;;;;4170023;28;20532;-57
2022/10/08 05:12:00;;;;;;;32.70;7.28;;;9.70;99.90;;;;;;4170827;28;20527;-58
2022/10/08 05:14:20;;;;;;;64.32;8.10;;;9.70;99.90;;;;;;4170135;28;20612;-58
2022/10/08 05:16:40;;;;;;;67.55;7.78;;;9.70;99.90;;;;;;4169945;28;20055;-57
2022/10/08 05:19:01;;;;;;;10.57;6.53;;;9.60;99.90;;;;;;4168738;28;20072;-57
2022/10/08 05:21:25;;;;;;;159.48;12.32;;;9.60;99.90;;;;;;4169807;28;20055;-58
2022/10/08 05:23:45;;;;;;;115.40;10.13;;;9.60;99.90;;;;;;4170652;28;20052;-58
2022/10/08 05:26:17;;;;;;;6.82;6.68;;;9.50;99.90;;;;;;4169667;28;20048;-57
2022/10/08 05:28:38;;;;;;;178.38;11.57;;;9.50;99.90;;;;;;4169564;28;20064;-57
2022/10/08 05:31:00;;;;;;;5.18;5.03;;;9.60;99.90;;;;;;4168088;28;20060;-58
2022/10/08 05:33:21;;;;;;;13.27;12.55;;;9.70;99.90;;;;;;4169959;28;20132;-58
2022/10/08 05:35:41;;;;;;;11.85;11.05;;;9.70;99.90;;;;;;4169769;28;20415;-56
2022/10/08 05:38:02;;;;;;;9.75;9.25;;;9.70;99.90;;;;;;4169456;28;20075;-58
2022/10/08 05:40:23;;;;;;;8.52;8.07;;;9.60;99.90;;;;;;4169228;28;20052;-57
2022/10/08 05:42:43;;;;;;;7.68;7.57;;;9.50;99.90;;;;;;4170502;28;20106;-58
2022/10/08 05:45:05;;;;;;;9.05;8.65;;;9.50;99.90;;;;;;4169505;28;20056;-58
2022/10/08 05:47:26;;;;;;;29.60;9.68;;;9.60;99.90;;;;;;4169692;28;20535;-60
2022/10/08 05:49:46;;;;;;;60.25;9.68;;;9.70;99.90;;;;;;4169926;28;20115;-57
2022/10/08 05:52:06;;;;;;;25.70;8.02;;;9.60;99.90;;;;;;4169704;28;20087;-59
2022/10/08 05:54:27;;;;;;;96.35;9.82;;;9.50;99.90;;;;;;4168518;28;20432;-58
2022/10/08 05:56:47;;;;;;;55.22;8.77;;;9.50;99.90;;;;;;4168325;28;20063;-57
2022/10/08 05:59:16;;;;;;;15.18;8.27;;;9.50;99.90;;;;;;4170118;28;20111;-58
2022/10/08 06:01:36;;;;;;;7.57;6.93;;;9.70;99.90;;;;;;4168739;28;20418;-58
2022/10/08 06:04:00;;;;;;;8.50;8.18;;;9.80;99.90;;;;;;4169037;28;20183;-57
2022/10/08 06:06:28;;;;;;;30.73;8.98;;;9.90;99.90;;;;;;4168301;28;20056;-58
2022/10/08 06:08:54;;;;;;;56.28;10.65;;;9.90;99.90;;;;;;4165697;28;20535;-58
2022/10/08 06:11:15;;;;;;;17.98;10.10;;;9.90;99.90;;;;;;4165065;28;20048;-58
2022/10/08 06:13:36;;;;;;;62.90;9.68;;;9.90;99.90;;;;;;4166710;28;20063;-58
2022/10/08 06:15:59;;;;;;;59.17;10.73;;;9.90;99.90;;;;;;4168571;28;20056;-58
2022/10/08 06:18:20;;;;;;;40.85;10.48;;;9.90;99.90;;;;;;4169234;28;20053;-58
2022/10/08 06:20:40;;;;;;;76.78;10.30;;;9.90;99.90;;;;;;4169278;28;20052;-59
2022/10/08 06:23:01;;;;;;;21.98;9.95;;;10.00;99.90;;;;;;4168959;28;20099;-59
2022/10/08 06:25:21;;;;;;;43.53;9.25;;;10.00;99.90;;;;;;4169098;28;20055;-57
2022/10/08 06:27:42;;;;;;;76.72;10.27;;;10.10;99.90;;;;;;4168752;28;20068;-58
2022/10/08 06:30:02;;;;;;;10.85;7.47;;;10.10;99.90;;;;;;4168990;28;20080;-57
2022/10/08 06:32:22;;;;;;;31.75;7.68;;;10.10;99.90;;;;;;4169032;28;20059;-58
2022/10/08 06:34:43;;;;;;;7.78;7.05;;;10.20;99.90;;;;;;4165734;28;20079;-58
2022/10/08 06:37:04;;;;;;;7.35;6.95;;;10.30;99.90;;;;;;4169591;28;20055;-58
2022/10/08 06:39:24;;;;;;;7.68;7.28;;;10.50;99.90;;;;;;4166625;28;20064;-58
2022/10/08 06:41:45;;;;;;;11.20;6.70;;;10.60;99.90;;;;;;4169117;28;20052;-57
2022/10/08 06:44:09;;;;;;;6.88;6.68;;;10.70;99.90;;;;;;4167030;28;20051;-58
2022/10/08 06:46:31;;;;;;;7.68;7.47;;;10.70;99.90;;;;;;4165258;28;20140;-58
2022/10/08 06:48:52;;;;;;;11.13;8.75;;;10.90;99.90;;;;;;4168497;28;20083;-58
2022/10/08 06:51:15;;;;;;;8.35;7.97;;;11.00;99.90;;;;;;4168474;28;20094;-59
2022/10/08 06:53:36;;;;;;;7.70;7.18;;;11.10;99.90;;;;;;4169168;28;20141;-58
2022/10/08 06:56:16;;;;;;;8.07;7.60;;;11.20;99.90;;;;;;4165723;28;20044;-57
2022/10/08 06:58:37;;;;;;;7.88;7.57;;;11.20;99.90;;;;;;4168129;28;20052;-58
2022/10/08 07:01:06;;;;;;;8.65;8.30;;;11.20;99.90;;;;;;4167913;28;20059;-58
2022/10/08 07:03:27;;;;;;;8.75;8.18;;;11.20;99.90;;;;;;4166827;28;20427;-58
2022/10/08 07:05:47;;;;;;;8.70;8.18;;;11.20;99.90;;;;;;4169888;28;20056;-58
2022/10/08 07:08:08;;;;;;;9.40;8.63;;;11.20;99.90;;;;;;4171376;28;20439;-58
2022/10/08 07:10:29;;;;;;;9.23;8.93;;;11.20;99.90;;;;;;4168759;28;20056;-58
2022/10/08 07:12:53;;;;;;;9.07;8.68;;;11.20;99.90;;;;;;4169709;28;20052;-58
2022/10/08 07:15:14;;;;;;;8.80;8.18;;;11.20;99.90;;;;;;4169255;28;20151;-58
2022/10/08 07:17:35;;;;;;;9.35;9.02;;;11.20;99.90;;;;;;4172061;28;20056;-58
2022/10/08 07:19:56;;;;;;;10.02;9.40;;;11.30;99.90;;;;;;4171934;28;20124;-58
2022/10/08 07:22:17;;;;;;;9.43;8.98;;;11.30;99.90;;;;;;4171683;28;20104;-58
2022/10/08 07:24:37;;;;;;;10.00;9.50;;;11.40;99.90;;;;;;4171407;28;20491;-58
2022/10/08 07:26:58;;;;;;;9.05;8.68;;;11.50;99.90;;;;;;4171669;28;20132;-58
2022/10/08 07:29:19;;;;;;;7.22;6.90;;;11.50;99.90;;;;;;4171034;28;20083;-58
2022/10/08 07:31:40;;;;;;;7.25;6.88;;;11.50;99.90;;;;;;4171605;28;20069;-58
2022/10/08 07:34:03;;;;;;;7.22;7.13;;;11.70;99.90;;;;;;4172052;28;20134;-58
2022/10/08 07:36:24;;;;;;;7.35;7.07;;;11.80;99.90;;;;;;4171735;28;20132;-58
2022/10/08 07:38:46;;;;;;;6.43;6.32;;;12.00;99.90;;;;;;4171684;28;20056;-58
2022/10/08 07:41:09;;;;;;;6.80;6.63;;;12.10;99.90;;;;;;4167204;28;20515;-58
2022/10/08 07:43:29;;;;;;;7.38;6.88;;;12.20;99.90;;;;;;4171069;28;20100;-57
2022/10/08 07:45:50;;;;;;;6.45;6.18;;;12.20;99.90;;;;;;4171575;28;20056;-58
2022/10/08 07:48:10;;;;;;;6.07;5.97;;;12.40;99.90;;;;;;4171125;28;20063;-58
2022/10/08 07:50:31;;;;;;;6.63;6.22;;;12.50;99.90;;;;;;4171512;28;20083;-58
2022/10/08 07:52:52;;;;;;;6.20;5.85;;;12.70;99.90;;;;;;4169586;28;20527;-58
2022/10/08 07:55:12;;;;;;;6.45;6.30;;;12.80;99.90;;;;;;4171186;28;20052;-58
2022/10/08 07:57:33;;;;;;;5.38;5.25;;;12.80;99.90;;;;;;4170245;28;20052;-58
2022/10/08 07:59:53;;;;;;;6.68;6.47;;;12.90;99.90;;;;;;4170511;28;20048;-58
2022/10/08 08:02:14;;;;;;;6.75;6.65;;;12.90;99.90;;;;;;4170461;28;20136;-58
2022/10/08 08:04:35;;;;;;;5.82;5.72;;;12.90;99.90;;;;;;4165080;28;20788;-58
2022/10/08 08:06:55;;;;;;;8.35;7.95;;;13.00;99.90;;;;;;4164018;28;20059;-58
2022/10/08 08:09:17;;;;;;;8.50;8.10;;;13.20;99.90;;;;;;4163495;28;20064;-56
2022/10/08 08:11:39;;;;;;;8.32;7.90;;;13.30;99.90;;;;;;4167454;28;20052;-56
2022/10/08 08:13:59;;;;;;;8.45;8.15;;;13.50;99.90;;;;;;4159660;28;20060;-56
2022/10/08 08:16:24;;;;;;;6.80;6.70;;;13.70;99.90;;;;;;4165253;28;20128;-56
2022/10/08 08:18:48;;;;;;;7.30;6.90;;;13.90;99.90;;;;;;4167574;28;20055;-56
2022/10/08 08:21:14;;;;;;;6.55;6.13;;;13.90;99.90;;;;;;4168326;28;20060;-56
2022/10/08 08:23:38;;;;;;;6.28;6.07;;;14.10;99.90;;;;;;4161972;28;20079;-56
2022/10/08 08:26:00;;;;;;;5.65;5.55;;;14.20;99.90;;;;;;4167970;28;20653;-56
2022/10/08 08:28:22;;;;;;;6.28;5.85;;;14.40;99.90;;;;;;4168652;28;20102;-56
2022/10/08 08:30:43;;;;;;;6.03;5.83;;;14.50;99.90;;;;;;4171006;28;20052;-56
2022/10/08 08:33:04;;;;;;;6.13;5.68;;;14.70;99.90;;;;;;4166457;28;21310;-55
2022/10/08 08:35:25;;;;;;;6.55;6.03;;;15.00;99.90;;;;;;4170436;28;20416;-57
2022/10/08 08:37:46;;;;;;;5.20;5.05;;;15.10;99.90;;;;;;4166306;28;20064;-57
2022/10/08 08:40:08;;;;;;;5.32;5.22;;;15.30;99.90;;;;;;4170894;28;20511;-56
2022/10/08 08:42:42;;;;;;;5.43;5.27;;;15.60;99.90;;;;;;4166544;28;20048;-56
2022/10/08 08:45:25;;;;;;;5.32;5.22;;;15.90;99.90;;;;;;4171060;28;20048;-56
2022/10/08 08:48:25;;;;;;;5.60;5.43;;;15.90;99.90;;;;;;4168299;28;20156;-57
2022/10/08 08:50:48;;;;;;;5.38;5.28;;;16.00;99.90;;;;;;4157315;28;20424;-56
2022/10/08 08:53:09;;;;;;;;;;;16.10;99.90;;;;;;4169800;28;20075;-57
2022/10/08 08:55:36;;;;;;;4.78;4.35;;;16.30;99.90;;;;;;4170413;28;20029;-56
2022/10/08 08:58:16;;;;;;;5.20;5.03;;;16.30;99.90;;;;;;4165714;28;20124;-57
2022/10/08 09:00:43;;;;;;;4.50;4.40;;;16.50;99.90;;;;;;4162831;28;20420;-56
2022/10/08 09:03:22;;;;;;;5.07;4.60;;;16.60;99.90;;;;;;4169082;28;20051;-57
2022/10/08 09:05:47;;;;;;;4.47;4.28;;;16.90;99.90;;;;;;4168476;28;20060;-57
2022/10/08 09:08:35;;;;;;;5.25;4.03;;;17.20;99.90;;;;;;4168544;28;20051;-57
2022/10/08 09:10:58;;;;;;;5.55;3.83;;;17.20;99.90;;;;;;4169431;28;20569;-57
2022/10/08 09:13:39;;;;;;;4.47;4.38;;;17.20;99.90;;;;;;4170417;28;20048;-56
2022/10/08 09:16:01;;;;;;;9.90;9.40;;;17.30;99.90;;;;;;4169113;28;20072;-57
2022/10/08 09:18:22;;;;;;;7.82;7.53;;;17.30;99.90;;;;;;4168720;28;20052;-57
2022/10/08 09:20:43;;;;;;;8.00;7.28;;;17.40;99.90;;;;;;4169522;28;20140;-57
2022/10/08 09:23:14;;;;;;;5.82;5.68;;;17.50;99.90;;;;;;4166292;28;20056;-55
2022/10/08 09:25:35;;;;;;;3.97;3.78;;;17.70;99.90;;;;;;4166428;28;20103;-57
2022/10/08 09:28:03;;;;;;;6.18;4.75;;;17.70;99.90;;;;;;4164523;28;20531;-56
2022/10/08 09:30:27;;;;;;;4.72;4.43;;;17.70;99.90;;;;;;4164208;28;20056;-54
2022/10/08 09:32:48;;;;;;;3.80;3.70;;;17.80;99.90;;;;;;4161644;28;20044;-56
2022/10/08 09:35:14;;;;;;;4.78;4.47;;;17.80;99.90;;;;;;4162054;28;20615;-56
2022/10/08 09:37:35;;;;;;;4.05;3.67;;;18.10;99.90;;;;;;4167648;28;20105;-57
2022/10/08 09:40:20;;;;;;;5.00;4.78;;;18.30;99.90;;;;;;4165307;28;20103;-56
2022/10/08 09:42:41;;;;;;;3.95;3.75;;;18.70;99.90;;;;;;4166876;28;20044;-57
2022/10/08 09:45:23;;;;;;;3.72;3.53;;;18.80;99.90;;;;;;4167869;28;20094;-57
2022/10/08 09:47:44;;;;;;;3.17;3.08;;;19.00;99.90;;;;;;4166682;28;20168;-56
2022/10/08 09:50:06;;;;;;;3.72;2.95;;;19.00;99.90;;;;;;4162550;28;20107;-57
2022/10/08 09:52:27;;;;;;;2.88;2.78;;;19.10;99.90;;;;;;4161807;28;20535;-57
2022/10/08 09:54:52;;;;;;;3.45;3.35;;;19.30;99.90;;;;;;4165814;28;20059;-57
2022/10/08 09:57:15;;;;;;;3.40;3.30;;;19.40;99.90;;;;;;4162456;28;20657;-57
2022/10/08 09:59:41;;;;;;;2.90;2.80;;;19.40;99.90;;;;;;4166666;28;20047;-57
2022/10/08 10:02:06;;;;;;;3.75;3.60;;;19.70;99.90;;;;;;4158748;28;20092;-57
2022/10/08 10:04:35;;;;;;;3.90;3.53;;;19.80;99.90;;;;;;4165337;28;20107;-57
2022/10/08 10:06:56;;;;;;;4.65;4.15;;;20.10;99.90;;;;;;4162258;28;20428;-55
2022/10/08 10:09:29;;;;;;;6.72;4.68;;;20.20;99.90;;;;;;4163259;28;20522;-57
2022/10/08 10:12:05;;;;;;;3.88;3.67;;;20.40;99.90;;;;;;4167128;28;20070;-57
2022/10/08 10:14:43;;;;;;;4.72;4.28;;;20.40;99.90;;;;;;4160835;28;20059;-55
2022/10/08 10:17:11;;;;;;;4.35;4.15;;;20.80;99.90;;;;;;4161383;28;20061;-57
2022/10/08 10:19:44;;;;;;;6.13;5.57;;;20.70;99.90;;;;;;4163537;28;20457;-56
2022/10/08 10:22:17;;;;;;;3.78;3.67;;;20.50;99.90;;;;;;4159904;28;20048;-56
2022/10/08 10:24:58;;;;;;;5.65;5.22;;;20.80;99.90;;;;;;4157895;28;20068;-56
2022/10/08 10:27:28;;;;;;;5.10;4.78;;;20.70;99.90;;;;;;4166674;28;20159;-55
2022/10/08 10:30:13;;;;;;;6.00;5.57;;;20.30;99.90;;;;;;4163512;28;20123;-56
2022/10/08 10:32:42;;;;;;;5.45;4.32;;;20.40;99.90;;;;;;4161674;28;20098;-56
2022/10/08 10:35:16;;;;;;;5.03;4.03;;;20.40;99.90;;;;;;4164350;28;20053;-56
2022/10/08 10:37:43;;;;;;;;;;;20.20;99.90;;;;;;4153703;28;20527;-56
2022/10/08 10:40:25;;;;;;;3.65;3.35;;;20.20;99.90;;;;;;4158353;28;20323;-57
2022/10/08 10:42:57;;;;;;;2.38;2.28;;;20.20;99.90;;;;;;4162634;28;20048;-57
2022/10/08 10:45:21;;;;;;;3.47;3.35;;;20.30;99.90;;;;;;4158518;28;20057;-56
2022/10/08 10:47:42;;;;;;;3.70;2.47;;;20.50;99.90;;;;;;4158931;28;20076;-56
2022/10/08 10:50:02;;;;;;;2.45;1.92;;;20.70;99.90;;;;;;4161448;28;20064;-56
2022/10/08 10:52:45;;;;;;;2.00;1.88;;;21.20;99.90;;;;;;4161264;28;20051;-56
2022/10/08 10:55:16;;;;;;;1.40;1.23;;;21.60;99.90;;;;;;4167932;28;20059;-56
2022/10/08 10:57:46;;;;;;;1.20;1.20;;;21.50;99.90;;;;;;4163041;28;20064;-56
2022/10/08 11:00:22;;;;;;;1.40;1.30;;;21.80;99.90;;;;;;4162998;28;20060;-56
2022/10/08 11:03:09;;;;;;;2.20;1.30;;;22.30;99.90;;;;;;4164005;28;20052;-57
2022/10/08 11:05:34;;;;;;;1.63;1.25;;;22.30;99.90;;;;;;4166616;28;20579;-56
2022/10/08 11:08:16;;;;;;;1.77;1.30;;;22.30;99.90;;;;;;4165079;28;20527;-57
2022/10/08 11:10:51;;;;;;;1.88;1.20;;;21.90;99.90;;;;;;4163303;28;20055;-57
2022/10/08 11:13:37;;;;;;;1.38;1.10;;;21.90;99.90;;;;;;4168051;28;20051;-57
2022/10/08 11:16:06;;;;;;;2.13;1.00;;;22.50;99.90;;;;;;4166500;28;20533;-57
2022/10/08 11:18:48;;;;;;;1.20;1.10;;;22.40;99.90;;;;;;4168575;28;20133;-57
2022/10/08 11:21:45;;;;;;;2.03;1.10;;;22.50;99.90;;;;;;4168724;28;20148;-57
2022/10/08 11:24:28;;;;;;;1.20;1.15;;;22.40;99.90;;;;;;4162107;28;20425;-57
2022/10/08 11:27:29;;;;;;;0.90;0.90;;;22.50;99.90;;;;;;4164435;28;20088;-56
2022/10/08 11:30:04;;;;;;;1.00;1.00;;;22.20;99.90;;;;;;4165667;28;20056;-55
2022/10/08 11:32:25;;;;;;;2.55;1.30;;;21.90;99.90;;;;;;4165153;28;20048;-55
2022/10/08 11:35:08;;;;;;;1.60;1.52;;;21.90;99.90;;;;;;4165545;28;20428;-55
2022/10/08 11:37:43;;;;;;;2.05;1.05;;;21.90;99.90;;;;;;4165839;28;20051;-55
2022/10/08 11:40:31;;;;;;;1.00;1.00;;;21.90;99.90;;;;;;4167991;28;20055;-55
2022/10/08 11:43:04;;;;;;;0.90;0.90;;;21.40;99.90;;;;;;4167994;28;20051;-55
2022/10/08 11:45:25;;;;;;;1.23;1.23;;;21.00;99.90;;;;;;4161325;28;20136;-55
2022/10/08 11:47:57;;;;;;;2.25;1.10;;;21.00;99.90;;;;;;4163237;28;20502;-55
2022/10/08 11:50:39;;;;;;;1.65;1.58;;;20.90;99.90;;;;;;4158606;28;20064;-55
2022/10/08 11:53:09;;;;;;;1.10;1.10;;;20.90;99.90;;;;;;4162758;28;20044;-55
2022/10/08 11:55:32;;;;;;;1.48;1.30;;;20.80;99.90;;;;;;4171276;28;20157;-55
2022/10/08 11:57:59;;;;;;;7.45;1.30;;;21.00;99.90;;;;;;4171023;28;20447;-56
2022/10/08 12:00:47;;;;;;;1.23;1.17;;;21.20;99.90;;;;;;4170807;28;20048;-55
2022/10/08 12:03:26;;;;;;;1.90;1.65;;;21.30;99.90;;;;;;4171011;28;20408;-55
2022/10/08 12:05:51;;;;;;;1.25;1.25;;;21.50;99.90;;;;;;4168267;28;20060;-54
2022/10/08 12:08:53;;;;;;;1.83;1.40;;;21.40;99.90;;;;;;4169797;28;20053;-55
2022/10/08 12:11:32;;;;;;;2.55;1.33;;;21.40;99.90;;;;;;4170685;28;20589;-55
2022/10/08 12:14:22;;;;;;;2.17;1.15;;;21.50;99.90;;;;;;4171260;28;20519;-55
2022/10/08 12:16:48;;;;;;;4.22;1.40;;;21.80;99.90;;;;;;4171116;28;20094;-55
2022/10/08 12:19:34;;;;;;;1.10;1.00;;;22.10;99.90;;;;;;4170721;28;20064;-55
2022/10/08 12:21:55;;;;;;;1.85;1.00;;;22.00;99.90;;;;;;4169756;28;20056;-55
2022/10/08 12:24:48;;;;;;;1.88;1.02;;;22.10;99.90;;;;;;4169660;28;20055;-55
2022/10/08 12:27:16;;;;;;;2.95;0.98;;;21.80;99.90;;;;;;4171326;28;20060;-55
2022/10/08 12:29:58;;;;;;;1.60;1.00;;;21.90;99.90;;;;;;4170884;28;20107;-54
2022/10/08 12:32:19;;;;;;;2.47;0.90;;;22.00;99.90;;;;;;4170727;28;20665;-55
2022/10/08 12:34:42;;;;;;;0.80;0.80;;;22.10;99.90;;;;;;4169307;28;20122;-55
2022/10/08 12:37:30;;;;;;;0.90;0.90;;;22.70;99.90;;;;;;4169451;28;20056;-55
2022/10/08 12:39:53;;;;;;;0.90;0.90;;;22.80;99.90;;;;;;4168408;28;20403;-55
2022/10/08 12:42:19;;;;;;;;;;;22.50;99.90;;;;;;4171140;28;20059;-56